Tiempo atmosférico en la estación meteorológica de Banyalbufar, Illes Balears (60 m.)

Fecha
DESCASC
Temp. máxima en grados centígrados (hora)
DESCASC
Temp. mínima en grados centígrados (hora)
DESCASC
Temp. media en grados centígrados
DESCASC
Racha de viento máxima en m/sg (hora)
DESCASC
Velocidad máxima media en intervalos de 10 minutos(hora)
DESCASC
Precipitaciones diarias en mm
DESCASC
Precipitaciones de 00:00 a 06:00 en mm
DESCASC
Precipitaciones de 06:00 a 12:00 en mm
DESCASC
Precipitaciones de 12:00 a 18:00 en mm
DESCASC
Precipitaciones de 18:00 a 24:00 en mm
DESCASC
24-09-2017 25.9 (16:40) 18.1 (05:30) 22 6.94 (17:40) 4.44 (18:00) 0 0 0 0 0
23-09-2017 25.5 (17:50) 19.1 (23:59) 22.3 6.94 (00:40) 3.61 (00:20) 0 0 0 0 0
22-09-2017 25.7 (17:20) 18.2 (06:30) 22 10 (23:40) 4.72 (23:00) 0 0 0 0 0
21-09-2017 25.9 (13:00) 20.5 (00:00) 23.2 8.33 (10:20) 4.17 (10:20) 0 0 0 0 0
20-09-2017 25.2 (15:50) 17.5 (00:00) 21.4 9.72 (00:30) 5.83 (09:10) 0 0 0 0 0
19-09-2017 22.5 (15:30) 16.8 (00:00) 19.6 10 (23:59) 5.56 (11:50) 1.2 0 1.2 0 0
18-09-2017 24.8 (11:10) 18.2 (00:00) 21.5 10.83 (00:40) 6.67 (16:00) 0 0 0 0 0
17-09-2017 25.7 (18:10) 15.6 (00:00) 20.7 10.83 (21:00) 6.39 (21:00) 0 0 0 0 0
16-09-2017 20.9 (17:40) 16.3 (00:00) 18.6 12.5 (00:50) 7.5 (00:50) 1.6 0 0.6 1 0
15-09-2017 23.6 (11:50) 17.6 (00:00) 20.6 16.67 (11:00) 10.56 (10:50) 37.6 0 0 37.4 0.2
14-09-2017 27.3 (12:20) 20.6 (00:00) 23.9 15.28 (23:20) 8.06 (23:30) 0 0 0 0 0
13-09-2017 29.7 (16:50) 19.2 (00:00) 24.5 12.78 (20:10) 6.39 (20:00) 0 0 0 0 0
12-09-2017 27.3 (11:20) 20.8 (00:00) 24 7.78 (11:30) 4.17 (21:00) 0 0 0 0 0
11-09-2017 28.4 (19:30) 22.6 (00:00) 25.5 12.78 (00:20) 7.78 (00:10) 0 0 0 0 0
10-09-2017 23.8 (19:10) 14.7 (00:00) 19.2 15.56 (05:20) 7.22 (23:50) 11.6 4.8 6.8 0 0
09-09-2017 29.2 (11:40) 18.4 (00:00) 23.8 15.56 (20:00) 10 (19:40) 1.4 0 0 0 1.4
08-09-2017 26.5 (14:30) 20.9 (00:00) 23.7 6.94 (05:40) 3.61 (03:30) 0 0 0 0 0
07-09-2017 25.1 (13:30) 21.6 (00:00) 23.4 8.33 (08:50) 4.72 (09:00) 3.6 0 3.4 0.2 0
06-09-2017 28.5 (16:10) 21.1 (00:00) 24.8 9.72 (17:20) 4.72 (17:00) 0 0 0 0 0
05-09-2017 28 (16:10) 21.2 (00:00) 24.6 5.56 (02:20) 3.33 (02:30) 0 0 0 0 0
04-09-2017 28.2 (18:30) 21.6 (00:00) 24.9 6.39 (13:10) 4.17 (13:10) 0 0 0 0 0
03-09-2017 27.4 (18:30) 18.5 (00:00) 22.9 8.33 (16:20) 4.44 (13:10) 0 0 0 0 0
02-09-2017 24.9 (19:30) 20.3 (00:00) 22.6 10 (06:40) 6.94 (06:30) 0 0 0 0 0
01-09-2017 26.1 (17:40) 21.2 (00:00) 23.7 11.39 (14:40) 5.56 (16:00) 0 0 0 0 0
31-08-2017 28 (13:20) 21.3 (00:00) 24.6 10.83 (19:10) 6.94 (19:00) 0.4 0.4 0 0 0
30-08-2017 28.9 (12:00) 22.4 (00:00) 25.6 11.67 (03:20) 6.94 (15:20) 0.2 0.2 0 0 0
29-08-2017 29 (13:40) 24.1 (00:00) 26.6 5.56 (22:40) 3.33 (07:20) 0 0 0 0 0
28-08-2017 28.5 (14:10) 23.7 (00:00) 26.1 7.22 (21:30) 3.89 (21:30) -- 0 0 -- 0
27-08-2017 28.2 (16:20) 22.6 (00:00) 25.4 6.39 (10:30) 3.61 (10:50) 0 0 0 0 0
26-08-2017 28.5 (17:50) 24 (00:00) 26.3 7.22 (06:30) 4.44 (06:30) 0 0 0 0 0

Gráficas

Temp. máximas Temp. mínimas Temp. medias Precipitaciones Rachas de viento máximas Velocidades máximas media en intervalos de 10 minutos

Datos horarios

Fecha y hora oficial Temperatura (ºC) Velocidad del viento (km/h) Dirección del viento Racha (km/h) Dirección de racha Precipitación (mm) Presión (hPa) Tendencia (hPa) Humedad (%)
2017-09-24 23:00:00 19.8 10 Sur 14 Sur 0 -- -- 75
2017-09-24 22:00:00 20 12 Sur 14 Sur 0 -- -- 76
2017-09-24 21:00:00 20.6 10 Sur 14 Sur 0 -- -- 73
2017-09-24 20:00:00 22.4 5 Sur 10 Sudeste 0 -- -- 68
2017-09-24 19:00:00 25.4 4 Sudoeste 21 Oeste 0 -- -- 66
2017-09-24 18:00:00 25.4 16 Oeste 25 Oeste 0 -- -- 68
2017-09-24 17:00:00 25.8 12 Oeste 22 Oeste 0 -- -- 68
2017-09-24 16:00:00 25 9 Oeste 23 Oeste 0 -- -- 73
2017-09-24 15:00:00 24.1 11 Oeste 23 Sudoeste 0 -- -- 75
2017-09-24 14:00:00 23.7 12 Oeste 22 Oeste 0 -- -- 79
2017-09-24 13:00:00 23.3 12 Oeste 20 Oeste 0 -- -- 83
2017-09-24 12:00:00 22.9 11 Oeste 18 Oeste 0 -- -- 85
2017-09-24 11:00:00 22.8 9 Oeste 15 Oeste 0 -- -- 83
2017-09-24 10:00:00 23 3 Sudoeste 10 Sudoeste 0 -- -- 81
2017-09-24 09:00:00 21 8 Sur 17 Sudoeste 0 -- -- 92
2017-09-24 08:00:00 20.3 12 Sudoeste 19 Sudoeste 0 -- -- 94
2017-09-24 07:00:00 19.9 12 Sudoeste 17 Sudoeste 0 -- -- 95
2017-09-24 06:00:00 18.4 11 Sur 14 Sur 0 -- -- 93
2017-09-24 05:00:00 18.2 10 Sur 16 Sur 0 -- -- 95
2017-09-24 04:00:00 18.9 6 Sur 13 Sur 0 -- -- 98
2017-09-24 03:00:00 19.1 11 Sur 15 Sudoeste 0 -- -- 95
2017-09-24 02:00:00 18.9 10 Sur 16 Sudoeste 0 -- -- 94
2017-09-24 01:00:00 18.9 10 Sur 17 Sur 0 -- -- 91
2017-09-24 00:00:00 19.1 10 Sur 13 Sur 0 -- -- 88
2017-09-23 23:00:00 19.6 8 Sur 13 Sur 0 -- -- 87
2017-09-23 22:00:00 19.8 10 Sur 13 Sur 0 -- -- 84
2017-09-23 21:00:00 20.3 5 Sur 9 Sur 0 -- -- 81
2017-09-23 20:00:00 21.3 4 Sur 10 Sur 0 -- -- 82
2017-09-23 19:00:00 24.8 2 Sudoeste 7 Norte 0 -- -- 67
2017-09-23 18:00:00 25.2 3 Norte 8 Norte 0 -- -- 67
2017-09-23 17:00:00 25.2 4 Noroeste 8 Noroeste 0 -- -- 66
2017-09-23 16:00:00 25.2 3 Norte 12 Norte 0 -- -- 65
2017-09-23 15:00:00 24.9 4 Noroeste 8 Oeste 0 -- -- 67
2017-09-23 14:00:00 24.2 4 Norte 10 Noroeste 0 -- -- 71
2017-09-23 13:00:00 23.5 7 Norte 10 Norte 0 -- -- 76
2017-09-23 12:00:00 23 4 Norte 13 Nordeste 0 -- -- 78
2017-09-23 11:00:00 23.2 5 Oeste 13 Oeste 0 -- -- 73
2017-09-23 10:00:00 23.4 3 Sur 12 Sur 0 -- -- 73
2017-09-23 09:00:00 21.2 6 Sudeste 15 Sudeste 0 -- -- 77
2017-09-23 08:00:00 20 10 Sudeste 15 Este 0 -- -- 83
2017-09-23 07:00:00 20 6 Sudeste 19 Sudeste 0 -- -- 79
2017-09-23 06:00:00 20.5 7 Este 22 Sudeste 0 -- -- 83
2017-09-23 05:00:00 20.1 12 Sudeste 19 Sudeste 0 -- -- 87
2017-09-23 04:00:00 19.8 6 Sur 19 Sur 0 -- -- 91
2017-09-23 03:00:00 19.7 10 Sur 13 Sur 0 -- -- 84
2017-09-23 02:00:00 20.5 5 Sudeste 15 Sudeste 0 -- -- 77
2017-09-23 01:00:00 21 12 Sudeste 25 Sudeste 0 -- -- 79
2017-09-23 00:00:00 21.6 13 Sudeste 36 Sudeste 0 -- -- 76
2017-09-22 23:00:00 21.6 17 Sudeste 35 Sudeste 0 -- -- 78
2017-09-22 22:00:00 21.9 10 Sudeste 32 Sudeste 0 -- -- 76
2017-09-22 21:00:00 22.2 9 Sudeste 21 Sudeste 0 -- -- 76
2017-09-22 20:00:00 22.5 2 Sudeste 11 Sudeste 0 -- -- 74
2017-09-22 19:00:00 23 10 Nordeste 19 Nordeste 0 -- -- 79
2017-09-22 18:00:00 24.2 5 Nordeste 11 Nordeste 0 -- -- 71
2017-09-22 17:00:00 25.6 3 Noroeste 11 Norte 0 -- -- 60
2017-09-22 16:00:00 24.5 5 Norte 10 Norte 0 -- -- 65
2017-09-22 15:00:00 24.3 4 Norte 10 Noroeste 0 -- -- 68
2017-09-22 14:00:00 23.8 5 Norte 15 Norte 0 -- -- 72
2017-09-22 13:00:00 23.4 8 Norte 18 Norte 0 -- -- 73
2017-09-22 12:00:00 23.7 8 Norte 28 Sudeste 0 -- -- 72
2017-09-22 11:00:00 23.1 10 Este 28 Este 0 -- -- 68
2017-09-22 10:00:00 22.1 13 Nordeste 23 Nordeste 0 -- -- 76
2017-09-22 09:00:00 21.6 9 Sudeste 24 Sudeste 0 -- -- 79
2017-09-22 08:00:00 20.4 13 Sudeste 23 Sudeste 0 -- -- 85
2017-09-22 07:00:00 19.5 9 Sudeste 24 Sudeste 0 -- -- 86
2017-09-22 06:00:00 18.3 7 Sur 13 Sur 0 -- -- 85
2017-09-22 05:00:00 19.5 5 Sudeste 18 Sudeste 0 -- -- 84
2017-09-22 04:00:00 19 5 Sudeste 13 Sudeste 0 -- -- 84
2017-09-22 03:00:00 20.2 6 Este 12 Este 0 -- -- 81
2017-09-22 02:00:00 20.2 5 Sudeste 15 Sudeste 0 -- -- 76
2017-09-22 01:00:00 20.9 6 Sudeste 17 Sudeste 0 -- -- 71
2017-09-22 00:00:00 21.2 9 Sudeste 21 Sudeste 0 -- -- 69
2017-09-21 23:00:00 21.4 9 Sudeste 17 Sudeste 0 -- -- 66
2017-09-21 22:00:00 21.7 7 Sur 16 Sur 0 -- -- 63
2017-09-21 21:00:00 21.6 6 Sur 13 Sur 0 -- -- 70
2017-09-21 20:00:00 21.9 5 Sur 13 Noroeste 0 -- -- 73
2017-09-21 19:00:00 23.8 9 Nordeste 21 Nordeste 0 -- -- 65
2017-09-21 18:00:00 23.4 14 Nordeste 23 Nordeste 0 -- -- 67
2017-09-21 17:00:00 24 14 Nordeste 21 Nordeste 0 -- -- 65
2017-09-21 16:00:00 24.5 11 Nordeste 22 Nordeste 0 -- -- 65
2017-09-21 15:00:00 24.1 13 Norte 23 Nordeste 0 -- -- 69
2017-09-21 14:00:00 25.4 10 Norte 15 Noroeste 0 -- -- 61
2017-09-21 13:00:00 25.9 4 Sudoeste 24 Sudeste 0 -- -- 56
2017-09-21 12:00:00 25 10 Sur 24 Sudeste 0 -- -- 59
2017-09-21 11:00:00 24.2 10 Sudeste 30 Sudeste 0 -- -- 62
2017-09-21 10:00:00 23 14 Sur 27 Sudeste 0 -- -- 67
2017-09-21 09:00:00 22.2 12 Sur 30 Sudoeste 0 -- -- 70
2017-09-21 08:00:00 20.9 13 Sur 24 Sur 0 -- -- 75
2017-09-21 07:00:00 20.8 13 Sur 30 Sur 0 -- -- 76
2017-09-21 06:00:00 20.8 10 Sur 22 Sur 0 -- -- 77
2017-09-21 05:00:00 20.6 6 Sur 20 Sudoeste 0 -- -- 78
2017-09-21 04:00:00 20.8 6 Sur 17 Sur 0 -- -- 72
2017-09-21 03:00:00 21.1 5 Sudeste 21 Sur 0 -- -- 73
2017-09-21 02:00:00 21 9 Sur 21 Sur 0 -- -- 74
2017-09-21 01:00:00 21 11 Sur 24 Sur 0 -- -- 74
2017-09-21 00:00:00 21.2 13 Sur 23 Sur 0 -- -- 75
2017-09-20 23:00:00 21.5 4 Sudeste 23 Sudoeste 0 -- -- 74
2017-09-20 22:00:00 21.6 16 Sur 24 Sur 0 -- -- 72
2017-09-20 21:00:00 21.8 12 Sudoeste 23 Sudoeste 0 -- -- 68
2017-09-20 20:00:00 21.9 10 Sur 19 Sudoeste 0 -- -- 67
2017-09-20 19:00:00 24.4 9 Sudoeste 25 Oeste 0 -- -- 59
2017-09-20 18:00:00 24.6 9 Oeste 21 Oeste 0 -- -- 57
2017-09-20 17:00:00 24.5 9 Oeste 23 Noroeste 0 -- -- 60
2017-09-20 16:00:00 25 9 Noroeste 21 Oeste 0 -- -- 55
2017-09-20 15:00:00 23.9 6 Oeste 18 Oeste 0 -- -- 54
2017-09-20 14:00:00 24.9 7 Oeste 23 Sudoeste 0 -- -- 51
2017-09-20 13:00:00 24.3 6 Sudoeste 23 Sur 0 -- -- 53
2017-09-20 12:00:00 23.4 11 Sur 24 Sur 0 -- -- 58
2017-09-20 11:00:00 21.9 15 Sur 33 Sur 0 -- -- 61
2017-09-20 10:00:00 21.3 16 Sur 33 Sur 0 -- -- 63
2017-09-20 09:00:00 20 18 Sur 33 Sur 0 -- -- 64
2017-09-20 08:00:00 19.3 17 Sur 32 Sur 0 -- -- 66
2017-09-20 07:00:00 18.8 13 Sur 22 Sur 0 -- -- 67
2017-09-20 06:00:00 18.3 10 Sur 20 Sur 0 -- -- 68
2017-09-20 05:00:00 18 15 Sur 20 Sur 0 -- -- 69
2017-09-20 04:00:00 17.6 8 Sudeste 22 Sudeste 0 -- -- 68
2017-09-20 03:00:00 18 10 Sur 20 Sudeste 0 -- -- 69
2017-09-20 02:00:00 18.5 12 Sudeste 29 Sudeste 0 -- -- 68
2017-09-20 01:00:00 18.9 17 Sudeste 35 Sudeste 0 -- -- 70
2017-09-20 00:00:00 18.9 18 Sudeste 36 Sudeste 0 -- -- 71
2017-09-19 23:00:00 18.5 13 Sudeste 26 Sudeste 0 -- -- 70
2017-09-19 22:00:00 18.8 10 Sur 21 Sudeste 0 -- -- 57
2017-09-19 21:00:00 18.2 6 Sur 13 Sur 0 -- -- 57
2017-09-19 20:00:00 19.3 10 Sur 16 Sur 0 -- -- 63
2017-09-19 19:00:00 21.6 6 Nordeste 13 Norte 0 -- -- 57
2017-09-19 18:00:00 21.9 9 Norte 15 Norte 0 -- -- 57
2017-09-19 17:00:00 22.3 7 Norte 23 Noroeste 0 -- -- 57
2017-09-19 16:00:00 22.2 8 Norte 16 Norte 0 -- -- 55
2017-09-19 15:00:00 22.3 8 Norte 23 Norte 0 -- -- 56
2017-09-19 14:00:00 21.9 10 Norte 18 Norte 0 -- -- 63
2017-09-19 13:00:00 22.1 10 Norte 23 Norte 0 -- -- 61
2017-09-19 12:00:00 20.8 17 Norte 28 Noroeste 0 -- -- 68
2017-09-19 11:00:00 21 7 Norte 14 Norte 0 -- -- 80
2017-09-19 10:00:00 19.4 7 Sur 14 Sur 0 -- -- 91
2017-09-19 09:00:00 18.3 9 Sur 16 Sur 0 -- -- 97
2017-09-19 08:00:00 17.3 10 Sur 18 Sur 0 -- -- 100
2017-09-19 07:00:00 17.1 9 Sur 15 Sur 1.2 -- -- 99
2017-09-19 06:00:00 18.6 10 Sudeste 17 Sudeste 0 -- -- 83
2017-09-19 05:00:00 17.5 9 Sur 13 Sur 0 -- -- 87
2017-09-19 04:00:00 17.4 9 Sur 12 Sur 0 -- -- 86
2017-09-19 03:00:00 17.7 6 Sur 14 Sur 0 -- -- 83
2017-09-19 02:00:00 18.8 9 Sur 13 Sur 0 -- -- 82
2017-09-19 01:00:00 19.2 8 Sudeste 15 Sudeste 0 -- -- 84
2017-09-19 00:00:00 19.8 5 Sudeste 14 Sur 0 -- -- 80
2017-09-18 23:00:00 18.3 10 Sur 13 Sur 0 -- -- 74
2017-09-18 22:00:00 20.5 9 Sudeste 19 Sudeste 0 -- -- 60
2017-09-18 21:00:00 19.4 6 Sudeste 19 Este 0 -- -- 79
2017-09-18 20:00:00 20.4 8 Nordeste 28 Nordeste 0 -- -- 91
2017-09-18 19:00:00 21.2 18 Nordeste 31 Nordeste 0 -- -- 90
2017-09-18 18:00:00 21.8 19 Nordeste 35 Nordeste 0 -- -- 90
2017-09-18 17:00:00 22.3 19 Norte 36 Norte 0 -- -- 90
2017-09-18 16:00:00 23 24 Norte 35 Noroeste 0 -- -- 86
2017-09-18 15:00:00 24.2 14 Oeste 29 Noroeste 0 -- -- 78
2017-09-18 14:00:00 23.7 14 Oeste 28 Sudoeste 0 -- -- 85
2017-09-18 13:00:00 23.7 17 Oeste 35 Oeste 0 -- -- 82
2017-09-18 12:00:00 24.1 17 Oeste 33 Oeste 0 -- -- 75
2017-09-18 11:00:00 24.6 13 Sudoeste 31 Sur 0 -- -- 67
2017-09-18 10:00:00 23.9 15 Oeste 38 Oeste 0 -- -- 72
2017-09-18 09:00:00 23.5 7 Sudoeste 30 Sudeste 0 -- -- 75
2017-09-18 08:00:00 22.6 15 Sudoeste 30 Sur 0 -- -- 77
2017-09-18 07:00:00 22.3 10 Sur 39 Sudoeste 0 -- -- 81
2017-09-18 06:00:00 22.3 13 Sur 32 Sudoeste 0 -- -- 77
2017-09-18 05:00:00 22 3 Norte 24 Sur 0 -- -- 79
2017-09-18 04:00:00 22.1 15 Sur 31 Sudeste 0 -- -- 77
2017-09-18 03:00:00 21.9 12 Sur 27 Sudeste 0 -- -- 77
2017-09-18 02:00:00 22.1 10 Sur 29 Sur 0 -- -- 75
2017-09-18 01:00:00 21.9 15 Sur 39 Sur 0 -- -- 79
2017-09-18 00:00:00 22 18 Sur 33 Sur 0 -- -- 76
2017-09-17 23:00:00 21.9 15 Sur 36 Sur 0 -- -- 73
2017-09-17 22:00:00 22.2 17 Sur 37 Sur 0 -- -- 66
2017-09-17 21:00:00 21.7 23 Sur 39 Sur 0 -- -- 72
2017-09-17 20:00:00 21.9 13 Sur 26 Sur 0 -- -- 65
2017-09-17 19:00:00 23.5 10 Sur 24 Sur 0 -- -- 60
2017-09-17 18:00:00 25.6 9 Sur 19 Oeste 0 -- -- 55
2017-09-17 17:00:00 23.5 12 Oeste 23 Oeste 0 -- -- 65
2017-09-17 16:00:00 23.5 11 Oeste 22 Oeste 0 -- -- 61
2017-09-17 15:00:00 23 13 Oeste 23 Oeste 0 -- -- 59
2017-09-17 14:00:00 22.8 12 Oeste 23 Oeste 0 -- -- 60
2017-09-17 13:00:00 22.5 7 Noroeste 14 Oeste 0 -- -- 58
2017-09-17 12:00:00 22.1 6 Oeste 10 Noroeste 0 -- -- 59
2017-09-17 11:00:00 21.4 5 Oeste 9 Noroeste 0 -- -- 59
2017-09-17 10:00:00 20.2 3 Sur 12 Sur 0 -- -- 74
2017-09-17 09:00:00 18 10 Sur 16 Sur 0 -- -- 78
2017-09-17 08:00:00 16 12 Sur 14 Sur 0 -- -- 83
2017-09-17 07:00:00 15.6 11 Sur 15 Sur 0 -- -- 86
2017-09-17 06:00:00 16.1 8 Sur 14 Sur 0 -- -- 85
2017-09-17 05:00:00 15.9 10 Sur 17 Sur 0 -- -- 88
2017-09-17 04:00:00 15.9 11 Sur 16 Sudoeste 0 -- -- 88
2017-09-17 03:00:00 16.6 12 Sur 17 Sudoeste 0 -- -- 90
2017-09-17 02:00:00 17.2 12 Sur 17 Sudoeste 0 -- -- 90
2017-09-17 01:00:00 17.2 13 Sur 20 Sudoeste 0 -- -- 86
2017-09-17 00:00:00 16.8 13 Sur 18 Sudoeste 0 -- -- 88
2017-09-16 23:00:00 17.2 12 Sur 17 Sudoeste 0 -- -- 94
2017-09-16 22:00:00 17 11 Sur 15 Sur 0 -- -- 92
2017-09-16 21:00:00 17.8 9 Sur 14 Sudoeste 0 -- -- 94
2017-09-16 20:00:00 19.2 5 Sudoeste 15 Oeste 0 -- -- 84
2017-09-16 19:00:00 20.7 4 Noroeste 15 Oeste 0 -- -- 80
2017-09-16 18:00:00 20.5 8 Noroeste 15 Oeste 0.2 -- -- 79
2017-09-16 17:00:00 20.5 3 Noroeste 10 Norte 0 -- -- 82
2017-09-16 16:00:00 18.9 10 Norte 27 Norte 0 -- -- 90
2017-09-16 15:00:00 19 9 Noroeste 19 Noroeste 0 -- -- 93
2017-09-16 14:00:00 18.3 8 Oeste 21 Oeste 0.4 -- -- 97
2017-09-16 13:00:00 18.2 11 Oeste 29 Noroeste 0.4 -- -- 88
2017-09-16 12:00:00 20.3 0 Calma 8 Oeste 0 -- -- 74
2017-09-16 11:00:00 20 4 Noroeste 9 Noroeste 0 -- -- 77
2017-09-16 10:00:00 18.2 4 Sur 13 Sudeste 0 -- -- 93
2017-09-16 09:00:00 16.3 5 Sudeste 17 Este 0.6 -- -- 92
2017-09-16 08:00:00 18 7 Sudeste 24 Este 0 -- -- 75
2017-09-16 07:00:00 17.8 5 Sudeste 17 Este 0 -- -- 77
2017-09-16 06:00:00 17.7 8 Sudeste 21 Este 0 -- -- 78
2017-09-16 05:00:00 18 10 Este 23 Nordeste 0 -- -- 83
2017-09-16 04:00:00 18.3 15 Nordeste 32 Nordeste 0 -- -- 83
2017-09-16 03:00:00 18.1 10 Este 23 Este 0 -- -- 81
2017-09-16 02:00:00 17.7 8 Este 44 Este 0 -- -- 84
2017-09-16 01:00:00 18.2 24 Nordeste 45 Nordeste 0 -- -- 88
2017-09-16 00:00:00 18 27 Nordeste 50 Nordeste 0 -- -- 90
2017-09-15 23:00:00 17.9 26 Nordeste 54 Nordeste 0 -- -- 94
2017-09-15 22:00:00 18.5 30 Nordeste 56 Nordeste 0 -- -- 96
2017-09-15 21:00:00 18.5 27 Nordeste 54 Nordeste 0 -- -- 97
2017-09-15 20:00:00 18.6 30 Nordeste 50 Nordeste 0 -- -- 99
2017-09-15 19:00:00 18.6 28 Nordeste 50 Nordeste 0.2 -- -- 100
2017-09-15 18:00:00 19.7 26 Nordeste 44 Nordeste 0 -- -- 100
2017-09-15 17:00:00 19.8 19 Nordeste 39 Nordeste 0 -- -- 100
2017-09-15 16:00:00 19.7 10 Nordeste 19 Nordeste 0 -- -- 100
2017-09-15 15:00:00 19.2 5 Noroeste 49 Noroeste 37 -- -- 100
2017-09-15 14:00:00 20.8 12 Norte 54 Este 0.4 -- -- 82
2017-09-15 13:00:00 22.1 28 Sudeste 52 Sudeste 0 -- -- 72
2017-09-15 12:00:00 23.4 16 Este 56 Este 0 -- -- 66
2017-09-15 11:00:00 22.5 35 Sudeste 60 Sudeste 0 -- -- 69
2017-09-15 10:00:00 22 27 Sudeste 51 Sudeste 0 -- -- 70
2017-09-15 09:00:00 21.5 28 Sudeste 52 Sudeste 0 -- -- 72
2017-09-15 08:00:00 21.1 14 Sudeste 37 Sudeste 0 -- -- 72
2017-09-15 07:00:00 21.3 15 Sudeste 49 Sudeste 0 -- -- 70
2017-09-15 06:00:00 21.3 25 Sudeste 50 Sudeste 0 -- -- 71
2017-09-15 05:00:00 21.3 16 Este 42 Sudeste 0 -- -- 72
2017-09-15 04:00:00 21.4 13 Este 34 Este 0 -- -- 74
2017-09-15 03:00:00 21.6 14 Este 38 Este 0 -- -- 75
2017-09-15 02:00:00 21.6 13 Este 46 Sudeste 0 -- -- 78
2017-09-15 01:00:00 21.5 26 Sudeste 51 Sudeste 0 -- -- 79
2017-09-15 00:00:00 21.8 26 Sudeste 55 Sudeste 0 -- -- 80
2017-09-14 23:00:00 22.4 27 Sudeste 53 Sudeste 0 -- -- 81
2017-09-14 22:00:00 23 16 Sudeste 38 Sudeste 0 -- -- 81
2017-09-14 21:00:00 24.3 8 Este 21 Este 0 -- -- 80
2017-09-14 20:00:00 24.4 6 Este 26 Nordeste 0 -- -- 77
2017-09-14 19:00:00 25.4 12 Nordeste 19 Nordeste 0 -- -- 75
2017-09-14 18:00:00 25.8 10 Nordeste 22 Nordeste 0 -- -- 73
2017-09-14 17:00:00 26.4 12 Nordeste 19 Nordeste 0 -- -- 72
2017-09-14 16:00:00 26.5 11 Nordeste 20 Nordeste 0 -- -- 71
2017-09-14 15:00:00 26 13 Norte 22 Norte 0 -- -- 73
2017-09-14 14:00:00 26.9 8 Norte 13 Norte 0 -- -- 67
2017-09-14 13:00:00 27.1 6 Norte 13 Noroeste 0 -- -- 66
2017-09-14 12:00:00 25.9 10 Norte 14 Norte 0 -- -- 69
2017-09-14 11:00:00 25.9 3 Norte 12 Norte 0 -- -- 67
2017-09-14 10:00:00 26.7 2 Sudoeste 8 Sudeste 0 -- -- 61
2017-09-14 09:00:00 24.1 5 Sudeste 10 Sudeste 0 -- -- 71
2017-09-14 08:00:00 21.5 4 Sudeste 11 Sudeste 0 -- -- 76
2017-09-14 07:00:00 20.6 8 Sur 11 Sur 0 -- -- 78
2017-09-14 06:00:00 21.1 6 Sudeste 10 Sudeste 0 -- -- 75
2017-09-14 05:00:00 21 6 Sudeste 15 Sur 0 -- -- 76
2017-09-14 04:00:00 21.8 8 Sur 12 Sur 0 -- -- 74
2017-09-14 03:00:00 21 6 Sur 12 Sur 0 -- -- 74
2017-09-14 02:00:00 20.9 9 Sur 12 Sur 0 -- -- 80
2017-09-14 01:00:00 22 6 Sudeste 10 Sudeste 0 -- -- 71
2017-09-14 00:00:00 22.7 2 Sudeste 24 Sur 0 -- -- 70
2017-09-13 23:00:00 23.4 3 Sudoeste 28 Sur 0 -- -- 67
2017-09-13 22:00:00 23.7 11 Sur 39 Sur 0 -- -- 68
2017-09-13 21:00:00 23.8 16 Sur 46 Sur 0 -- -- 70
2017-09-13 20:00:00 24.1 23 Sur 39 Sudoeste 0 -- -- 68
2017-09-13 19:00:00 26.7 14 Sur 32 Sur 0 -- -- 59
2017-09-13 18:00:00 28.3 14 Sudoeste 32 Sur 0 -- -- 55
2017-09-13 17:00:00 29 13 Sudoeste 24 Sur 0 -- -- 51
2017-09-13 16:00:00 27.2 6 Noroeste 17 Oeste 0 -- -- 58
2017-09-13 15:00:00 26.6 4 Norte 16 Oeste 0 -- -- 60
2017-09-13 14:00:00 25.8 8 Noroeste 15 Noroeste 0 -- -- 62
2017-09-13 13:00:00 25.7 3 Norte 6 Noroeste 0 -- -- 58
2017-09-13 12:00:00 25.8 4 Norte 7 Noroeste 0 -- -- 59
2017-09-13 11:00:00 24.8 3 Norte 6 Nordeste 0 -- -- 61
2017-09-13 10:00:00 25.1 3 Nordeste 15 Sur 0 -- -- 58
2017-09-13 09:00:00 23.1 10 Sur 24 Sur 0 -- -- 69
2017-09-13 08:00:00 21.3 12 Sur 19 Sur 0 -- -- 75
2017-09-13 07:00:00 19.3 9 Sur 12 Sur 0 -- -- 72
2017-09-13 06:00:00 19.4 9 Sur 17 Sur 0 -- -- 72
2017-09-13 05:00:00 19.4 9 Sur 13 Sur 0 -- -- 68
2017-09-13 04:00:00 19.8 7 Sur 14 Sur 0 -- -- 63
2017-09-13 03:00:00 19.7 7 Sur 15 Sur 0 -- -- 61
2017-09-13 02:00:00 20.8 10 Sudeste 19 Sur 0 -- -- 60
2017-09-13 01:00:00 20.1 10 Sur 20 Sur 0 -- -- 71
2017-09-13 00:00:00 20.8 8 Sur 13 Sur 0 -- -- 83
2017-09-12 23:00:00 21.4 6 Sudeste 17 Sudeste 0 -- -- 80
2017-09-12 22:00:00 21.9 14 Sudeste 24 Sudeste 0 -- -- 77
2017-09-12 21:00:00 22.5 15 Sudeste 26 Sudeste 0 -- -- 74
2017-09-12 20:00:00 23.3 11 Sudeste 21 Sudeste 0 -- -- 72
2017-09-12 19:00:00 24.7 5 Norte 21 Oeste 0 -- -- 73
2017-09-12 18:00:00 25.3 9 Oeste 25 Oeste 0 -- -- 77
2017-09-12 17:00:00 26.3 11 Oeste 22 Noroeste 0 -- -- 73
2017-09-12 16:00:00 26.4 7 Oeste 14 Oeste 0 -- -- 72
2017-09-12 15:00:00 25.7 5 Noroeste 23 Sudoeste 0 -- -- 76
2017-09-12 14:00:00 25.4 7 Oeste 18 Noroeste 0 -- -- 76
2017-09-12 13:00:00 25.9 9 Oeste 20 Este 0 -- -- 77
2017-09-12 12:00:00 26.6 8 Sur 28 Sudeste 0 -- -- 63
2017-09-12 11:00:00 26.5 14 Sudeste 26 Sudeste 0 -- -- 65
2017-09-12 10:00:00 25.9 12 Sudeste 21 Este 0 -- -- 67
2017-09-12 09:00:00 24.8 7 Sudeste 21 Sudeste 0 -- -- 68
2017-09-12 08:00:00 22.2 10 Sudeste 17 Sudeste 0 -- -- 75
2017-09-12 07:00:00 21.2 10 Sur 13 Sur 0 -- -- 76
2017-09-12 06:00:00 21.5 6 Sudeste 13 Sudeste 0 -- -- 76
2017-09-12 05:00:00 22.1 6 Sur 14 Sur 0 -- -- 78
2017-09-12 04:00:00 22.6 12 Sur 20 Sudoeste 0 -- -- 66
2017-09-12 03:00:00 25.5 13 Sudoeste 23 Sudoeste 0 -- -- 50
2017-09-12 02:00:00 25.1 3 Sudeste 13 Sur 0 -- -- 40
2017-09-12 01:00:00 23.2 9 Sur 15 Sur 0 -- -- 49
2017-09-12 00:00:00 22.6 9 Sur 14 Sur 0 -- -- 52
2017-09-11 23:00:00 23.9 5 Sur 12 Sur 0 -- -- 47
2017-09-11 22:00:00 24.6 6 Sur 20 Sudoeste 0 -- -- 46
2017-09-11 21:00:00 27.4 12 Sudoeste 30 Sudoeste 0 -- -- 35
2017-09-11 20:00:00 27.5 16 Sudoeste 33 Sudoeste 0 -- -- 41
2017-09-11 19:00:00 27.7 14 Oeste 31 Oeste 0 -- -- 46
2017-09-11 18:00:00 27.2 19 Oeste 31 Sudoeste 0 -- -- 53
2017-09-11 17:00:00 26.9 20 Sudoeste 31 Oeste 0 -- -- 64
2017-09-11 16:00:00 27.5 19 Oeste 33 Sudoeste 0 -- -- 57
2017-09-11 15:00:00 27.2 19 Oeste 35 Sudoeste 0 -- -- 61
2017-09-11 14:00:00 26.5 18 Oeste 34 Oeste 0 -- -- 63
2017-09-11 13:00:00 26.5 12 Sudoeste 23 Sudoeste 0 -- -- 54
2017-09-11 12:00:00 25.9 5 Noroeste 12 Norte 0 -- -- 61
2017-09-11 11:00:00 25.1 8 Norte 17 Norte 0 -- -- 63
2017-09-11 10:00:00 25.2 11 Noroeste 31 Noroeste 0 -- -- 59
2017-09-11 09:00:00 24.9 17 Noroeste 31 Noroeste 0 -- -- 58
2017-09-11 08:00:00 22.9 9 Sudoeste 22 Oeste 0 -- -- 78
2017-09-11 07:00:00 23.1 12 Sudoeste 31 Sudoeste 0 -- -- 76
2017-09-11 06:00:00 22.7 12 Sudoeste 31 Oeste 0 -- -- 74
2017-09-11 05:00:00 22.8 9 Oeste 35 Oeste 0 -- -- 66
2017-09-11 04:00:00 23.1 15 Noroeste 32 Noroeste 0 -- -- 62
2017-09-11 03:00:00 23.3 17 Noroeste 39 Norte 0 -- -- 49
2017-09-11 02:00:00 23.5 19 Noroeste 42 Noroeste 0 -- -- 49
2017-09-11 01:00:00 23.4 19 Noroeste 46 Oeste 0 -- -- 54
2017-09-11 00:00:00 23.2 23 Noroeste 45 Norte 0 -- -- 55
2017-09-10 23:00:00 23.1 22 Noroeste 35 Noroeste 0 -- -- 59
2017-09-10 22:00:00 23.2 17 Noroeste 30 Noroeste 0 -- -- 60
2017-09-10 21:00:00 23.2 12 Noroeste 25 Noroeste 0 -- -- 52
2017-09-10 20:00:00 23 11 Noroeste 25 Noroeste 0 -- -- 47
2017-09-10 19:00:00 23.5 5 Oeste 13 Norte 0 -- -- 54
2017-09-10 18:00:00 22.9 10 Noroeste 26 Norte 0 -- -- 58
2017-09-10 17:00:00 22.6 15 Norte 31 Noroeste 0 -- -- 59
2017-09-10 16:00:00 21.7 18 Norte 33 Noroeste 0 -- -- 64
2017-09-10 15:00:00 21.2 11 Norte 35 Noroeste 0 -- -- 72
2017-09-10 14:00:00 20.8 19 Noroeste 36 Noroeste 0 -- -- 69
2017-09-10 13:00:00 20.4 5 Noroeste 16 Norte 0 -- -- 73
2017-09-10 12:00:00 19.9 5 Nordeste 10 Este 0 -- -- 75
2017-09-10 11:00:00 18.6 3 Sudeste 22 Sur 0.2 -- -- 100
2017-09-10 10:00:00 15.2 10 Sur 22 Este 5.4 -- -- 100
2017-09-10 09:00:00 17 8 Sur 14 Sudoeste 0.8 -- -- 100
2017-09-10 08:00:00 15.8 8 Sur 13 Sudeste 0 -- -- 100
2017-09-10 07:00:00 15.6 10 Sudeste 22 Este 0.4 -- -- 99
2017-09-10 06:00:00 14.8 12 Sur 56 Norte 4.4 -- -- 99
2017-09-10 05:00:00 17.4 9 Sur 17 Este 0 -- -- 75
2017-09-10 04:00:00 17.1 9 Sudeste 24 Sudeste 0 -- -- 76
2017-09-10 03:00:00 17.4 13 Sudeste 25 Sudeste 0 -- -- 89
2017-09-10 02:00:00 17.5 10 Sudeste 53 Noroeste 0.4 -- -- 100
2017-09-10 01:00:00 20.3 10 Oeste 30 Sudoeste 0 -- -- 87
2017-09-10 00:00:00 18.5 14 Sur 24 Sur 1 -- -- 93
2017-09-09 23:00:00 19.9 14 Sudoeste 25 Sur 0 -- -- 75
2017-09-09 22:00:00 19.1 17 Sur 24 Sur 0.4 -- -- 85
2017-09-09 21:00:00 19.4 9 Sudeste 51 Nordeste 0 -- -- 93
2017-09-09 20:00:00 21.5 30 Nordeste 56 Nordeste 0 -- -- 84
2017-09-09 19:00:00 22.5 27 Nordeste 44 Nordeste 0 -- -- 87
2017-09-09 18:00:00 24.1 25 Norte 37 Norte 0 -- -- 75
2017-09-09 17:00:00 24.4 27 Norte 41 Noroeste 0 -- -- 72
2017-09-09 16:00:00 25.3 18 Norte 32 Norte 0 -- -- 68
2017-09-09 15:00:00 26.7 11 Sudoeste 27 Sudoeste 0 -- -- 77
2017-09-09 14:00:00 26.6 10 Oeste 31 Oeste 0 -- -- 75
2017-09-09 13:00:00 26.8 14 Oeste 35 Sudoeste 0 -- -- 66
2017-09-09 12:00:00 28.6 11 Oeste 24 Oeste 0 -- -- 54
2017-09-09 11:00:00 28.7 8 Sudeste 28 Sudeste 0 -- -- 60
2017-09-09 10:00:00 27.1 7 Noroeste 37 Sudoeste 0 -- -- 61
2017-09-09 09:00:00 25.9 12 Sur 35 Sudeste 0 -- -- 69
2017-09-09 08:00:00 24.7 9 Este 49 Sur 0 -- -- 73
2017-09-09 07:00:00 23.9 10 Sudoeste 35 Sur 0 -- -- 78
2017-09-09 06:00:00 24.2 8 Sudeste 33 Sudoeste 0 -- -- 73
2017-09-09 05:00:00 23.4 10 Sur 50 Sur 0 -- -- 69
2017-09-09 04:00:00 24.3 18 Sur 47 Sur 0 -- -- 68
2017-09-09 03:00:00 24.1 8 Noroeste 23 Sur 0 -- -- 76
2017-09-09 02:00:00 23.7 5 Sur 14 Nordeste 0 -- -- 71
2017-09-09 01:00:00 24.2 4 Sudeste 20 Sur 0 -- -- 73
2017-09-09 00:00:00 23.1 4 Sudoeste 13 Sudeste 0 -- -- 81
2017-09-08 23:00:00 22.7 5 Sudeste 12 Sudeste 0 -- -- 81
2017-09-08 22:00:00 23.4 6 Sudeste 20 Sudeste 0 -- -- 80
2017-09-08 21:00:00 23 6 Sudeste 12 Sudeste 0 -- -- 81
2017-09-08 20:00:00 24.4 5 Sur 13 Oeste 0 -- -- 80
2017-09-08 19:00:00 25.8 3 Norte 12 Oeste 0 -- -- 75
2017-09-08 18:00:00 26.5 5 Noroeste 11 Norte 0 -- -- 72
2017-09-08 17:00:00 26.1 5 Norte 12 Norte 0 -- -- 73
2017-09-08 16:00:00 26.2 9 Norte 13 Noroeste 0 -- -- 74
2017-09-08 15:00:00 26.3 8 Norte 15 Noroeste 0 -- -- 76
2017-09-08 14:00:00 25.9 8 Noroeste 16 Norte 0 -- -- 74
2017-09-08 13:00:00 25.8 6 Noroeste 16 Oeste 0 -- -- 76
2017-09-08 12:00:00 24.7 6 Noroeste 14 Noroeste 0 -- -- 81
2017-09-08 11:00:00 25.4 5 Noroeste 11 Noroeste 0 -- -- 79
2017-09-08 10:00:00 25.3 4 Oeste 9 Oeste 0 -- -- 78
2017-09-08 09:00:00 23.8 4 Sudoeste 14 Sudoeste 0 -- -- 88
2017-09-08 08:00:00 22 8 Sur 15 Sudoeste 0 -- -- 94
2017-09-08 07:00:00 21.7 10 Sudoeste 17 Sudoeste 0 -- -- 96
2017-09-08 06:00:00 21.6 11 Sur 25 Sudoeste 0 -- -- 94
2017-09-08 05:00:00 21.4 13 Sudoeste 19 Sur 0 -- -- 89
2017-09-08 04:00:00 21.4 12 Sur 20 Sudoeste 0 -- -- 89
2017-09-08 03:00:00 20.9 12 Sur 15 Sur 0 -- -- 93
2017-09-08 02:00:00 21.2 11 Sur 16 Sudoeste 0 -- -- 90
2017-09-08 01:00:00 21.3 12 Sur 15 Sudoeste 0 -- -- 90
2017-09-08 00:00:00 21.6 9 Sur 15 Sudoeste 0 -- -- 88
2017-09-07 23:00:00 21.7 11 Sur 14 Sudoeste 0 -- -- 89
2017-09-07 22:00:00 22 9 Sur 11 Sur 0 -- -- 91
2017-09-07 21:00:00 22.5 5 Sudeste 8 Sur 0 -- -- 92
2017-09-07 20:00:00 23.9 4 Sudeste 13 Oeste 0 -- -- 87
2017-09-07 19:00:00 24.5 3 Noroeste 10 Oeste 0 -- -- 84
2017-09-07 18:00:00 24.7 5 Noroeste 12 Oeste 0 -- -- 81
2017-09-07 17:00:00 24.8 5 Noroeste 16 Oeste 0 -- -- 82
2017-09-07 16:00:00 24 10 Noroeste 18 Norte 0.2 -- -- 87
2017-09-07 15:00:00 23.9 10 Sudoeste 25 Oeste 0 -- -- 90
2017-09-07 14:00:00 25 8 Noroeste 13 Oeste 0 -- -- 84
2017-09-07 13:00:00 24.9 4 Noroeste 12 Norte 0 -- -- 82
2017-09-07 12:00:00 24.3 6 Sudoeste 13 Oeste 0 -- -- 87
2017-09-07 11:00:00 23.9 4 Noroeste 16 Sudeste 0 -- -- 93
2017-09-07 10:00:00 21.6 6 Sur 19 Este 3.4 -- -- 99
2017-09-07 09:00:00 22.2 17 Nordeste 30 Nordeste 0 -- -- 89
2017-09-07 08:00:00 22.5 6 Sudeste 16 Sur 0 -- -- 83
2017-09-07 07:00:00 21.7 8 Sur 10 Sur 0 -- -- 87
2017-09-07 06:00:00 22.4 6 Sur 11 Sur 0 -- -- 86
2017-09-07 05:00:00 22 7 Sur 14 Sur 0 -- -- 87
2017-09-07 04:00:00 22.2 7 Sur 10 Sur 0 -- -- 86
2017-09-07 03:00:00 22.3 9 Sur 12 Sur 0 -- -- 84
2017-09-07 02:00:00 23.3 9 Sudeste 16 Sudeste 0 -- -- 82
2017-09-07 01:00:00 23.3 8 Sudeste 13 Este 0 -- -- 82
2017-09-07 00:00:00 24 10 Sur 16 Sudeste 0 -- -- 80
2017-09-06 23:00:00 23.8 5 Sudeste 12 Sudeste 0 -- -- 80
2017-09-06 22:00:00 24.7 4 Este 13 Este 0 -- -- 79
2017-09-06 21:00:00 24.8 6 Este 12 Este 0 -- -- 76
2017-09-06 20:00:00 25.5 3 Noroeste 10 Noroeste 0 -- -- 74
2017-09-06 19:00:00 26 2 Norte 26 Sudeste 0 -- -- 72
2017-09-06 18:00:00 27.1 8 Sudeste 35 Sudeste 0 -- -- 69
2017-09-06 17:00:00 26.1 17 Sudeste 31 Sudeste 0 -- -- 76
2017-09-06 16:00:00 28.3 6 Noroeste 12 Oeste 0 -- -- 67
2017-09-06 15:00:00 27.2 5 Noroeste 14 Norte 0 -- -- 72
2017-09-06 14:00:00 26.3 9 Norte 19 Nordeste 0 -- -- 76
2017-09-06 13:00:00 26 10 Nordeste 21 Nordeste 0 -- -- 81
2017-09-06 12:00:00 26.5 13 Nordeste 22 Nordeste 0 -- -- 77
2017-09-06 11:00:00 25.6 12 Nordeste 20 Nordeste 0 -- -- 77
2017-09-06 10:00:00 26 7 Nordeste 19 Nordeste 0 -- -- 73
2017-09-06 09:00:00 25.3 4 Este 10 Este 0 -- -- 83
2017-09-06 08:00:00 23.1 6 Sudeste 12 Sudeste 0 -- -- 89
2017-09-06 07:00:00 22 7 Sudeste 13 Sur 0 -- -- 82
2017-09-06 06:00:00 21.1 10 Sur 14 Sur 0 -- -- 77
2017-09-06 05:00:00 21.5 8 Sur 19 Sudoeste 0 -- -- 80
2017-09-06 04:00:00 21.6 8 Sur 15 Sur 0 -- -- 82
2017-09-06 03:00:00 21.9 8 Sur 12 Sur 0 -- -- 84
2017-09-06 02:00:00 22.1 9 Sur 15 Sur 0 -- -- 85
2017-09-06 01:00:00 22.4 7 Sur 10 Sur 0 -- -- 85
2017-09-06 00:00:00 23.1 4 Sur 9 Sudeste 0 -- -- 83
2017-09-05 23:00:00 23.2 7 Sur 11 Sur 0 -- -- 85
2017-09-05 22:00:00 23.2 8 Sur 12 Sur 0 -- -- 87
2017-09-05 21:00:00 23.6 8 Sur 10 Sur 0 -- -- 85
2017-09-05 20:00:00 26.1 4 Norte 8 Norte 0 -- -- 78
2017-09-05 19:00:00 26.9 4 Norte 8 Norte 0 -- -- 77
2017-09-05 18:00:00 27 4 Norte 13 Noroeste 0 -- -- 76
2017-09-05 17:00:00 27.3 6 Noroeste 15 Noroeste 0 -- -- 75
2017-09-05 16:00:00 27.8 6 Noroeste 15 Noroeste 0 -- -- 70
2017-09-05 15:00:00 27.7 7 Noroeste 11 Noroeste 0 -- -- 65
2017-09-05 14:00:00 27.3 6 Noroeste 12 Oeste 0 -- -- 67
2017-09-05 13:00:00 26.4 5 Norte 9 Norte 0 -- -- 74
2017-09-05 12:00:00 26.3 5 Norte 12 Nordeste 0 -- -- 72
2017-09-05 11:00:00 26.6 3 Noroeste 7 Norte 0 -- -- 67
2017-09-05 10:00:00 26.9 0 Calma 5 Sudeste 0 -- -- 68
2017-09-05 09:00:00 25.2 4 Sur 12 Sur 0 -- -- 71
2017-09-05 08:00:00 21.8 6 Sur 14 Sur 0 -- -- 79
2017-09-05 07:00:00 21.4 9 Sur 11 Sur 0 -- -- 78
2017-09-05 06:00:00 22 6 Sur 13 Sur 0 -- -- 77
2017-09-05 05:00:00 22.2 5 Sur 12 Sudeste 0 -- -- 82
2017-09-05 04:00:00 22.2 6 Sur 15 Sudeste 0 -- -- 84
2017-09-05 03:00:00 22.5 7 Sur 20 Sudeste 0 -- -- 84
2017-09-05 02:00:00 23.5 10 Sudeste 17 Sudeste 0 -- -- 83
2017-09-05 01:00:00 22.4 8 Sur 13 Sur 0 -- -- 89
2017-09-05 00:00:00 22.7 10 Sur 12 Sur 0 -- -- 87
2017-09-04 23:00:00 23 7 Sur 13 Sur 0 -- -- 84
2017-09-04 22:00:00 23.5 8 Sur 15 Sur 0 -- -- 81
2017-09-04 21:00:00 24.1 6 Sur 9 Sur 0 -- -- 78
2017-09-04 20:00:00 26.7 3 Noroeste 8 Noroeste 0 -- -- 71
2017-09-04 19:00:00 27.6 5 Norte 8 Norte 0 -- -- 66
2017-09-04 18:00:00 27.3 8 Norte 20 Norte 0 -- -- 70
2017-09-04 17:00:00 27.3 12 Norte 22 Norte 0 -- -- 69
2017-09-04 16:00:00 27.5 11 Norte 18 Norte 0 -- -- 69
2017-09-04 15:00:00 27 10 Norte 19 Norte 0 -- -- 69
2017-09-04 14:00:00 26.9 15 Norte 23 Noroeste 0 -- -- 68
2017-09-04 13:00:00 27.5 12 Norte 22 Norte 0 -- -- 67
2017-09-04 12:00:00 27.6 8 Noroeste 22 Nordeste 0 -- -- 65
2017-09-04 11:00:00 26.7 8 Noroeste 14 Norte 0 -- -- 67
2017-09-04 10:00:00 25.3 7 Nordeste 16 Noroeste 0 -- -- 72
2017-09-04 09:00:00 24.9 5 Nordeste 13 Este 0 -- -- 69
2017-09-04 08:00:00 23.6 5 Sur 12 Este 0 -- -- 72
2017-09-04 07:00:00 22.7 7 Sur 18 Norte 0 -- -- 71
2017-09-04 06:00:00 23.8 5 Noroeste 14 Sur 0 -- -- 66
2017-09-04 05:00:00 22.5 8 Sudoeste 12 Sudoeste 0 -- -- 68
2017-09-04 04:00:00 22.7 6 Sudeste 9 Sudeste 0 -- -- 72
2017-09-04 03:00:00 22 7 Sur 10 Sur 0 -- -- 78
2017-09-04 02:00:00 21.6 6 Sur 13 Sur 0 -- -- 80
2017-09-04 01:00:00 21.7 7 Sur 15 Sur 0 -- -- 74
2017-09-04 00:00:00 21.7 10 Sur 13 Sur 0 -- -- 70
2017-09-03 23:00:00 22.5 6 Sudeste 9 Sudeste 0 -- -- 75
2017-09-03 22:00:00 24.1 4 Sudeste 23 Sudoeste 0 -- -- 68
2017-09-03 21:00:00 24.4 13 Sur 24 Sur 0 -- -- 69
2017-09-03 20:00:00 25.5 9 Sur 20 Oeste 0 -- -- 67
2017-09-03 19:00:00 26.3 9 Oeste 22 Oeste 0 -- -- 68
2017-09-03 18:00:00 26.5 13 Oeste 29 Oeste 0 -- -- 72
2017-09-03 17:00:00 26.5 10 Noroeste 30 Noroeste 0 -- -- 69
2017-09-03 16:00:00 26.1 15 Oeste 27 Oeste 0 -- -- 69
2017-09-03 15:00:00 25.9 13 Oeste 29 Oeste 0 -- -- 67
2017-09-03 14:00:00 26 14 Oeste 26 Oeste 0 -- -- 61
2017-09-03 13:00:00 25.7 14 Oeste 26 Oeste 0 -- -- 67
2017-09-03 12:00:00 25.6 12 Oeste 23 Noroeste 0 -- -- 59
2017-09-03 11:00:00 25.4 6 Oeste 14 Noroeste 0 -- -- 53
2017-09-03 10:00:00 24.9 2 Nordeste 6 Este 0 -- -- 49
2017-09-03 09:00:00 23 4 Sudeste 15 Sur 0 -- -- 49
2017-09-03 08:00:00 19.4 8 Sur 14 Sur 0 -- -- 56
2017-09-03 07:00:00 18.5 11 Sur 18 Sur 0 -- -- 51
2017-09-03 06:00:00 18.6 12 Sur 17 Sur 0 -- -- 51
2017-09-03 05:00:00 19 12 Sur 17 Sur 0 -- -- 53
2017-09-03 04:00:00 19 12 Sur 15 Sur 0 -- -- 51
2017-09-03 03:00:00 19.3 8 Sur 15 Sur 0 -- -- 50
2017-09-03 02:00:00 19.3 10 Sur 15 Sur 0 -- -- 43
2017-09-03 01:00:00 19.5 9 Sur 14 Sur 0 -- -- 54
2017-09-03 00:00:00 20.3 9 Sur 22 Sudeste 0 -- -- 58
2017-09-02 23:00:00 21.6 13 Sudeste 25 Sudeste 0 -- -- 65
2017-09-02 22:00:00 20.5 10 Sur 14 Sur 0 -- -- 40
2017-09-02 21:00:00 21.1 6 Sudeste 11 Sudeste 0 -- -- 35
2017-09-02 20:00:00 23.5 4 Sur 8 Sur 0 -- -- 46
2017-09-02 19:00:00 23.9 4 Noroeste 13 Noroeste 0 -- -- 60
2017-09-02 18:00:00 24.3 6 Norte 14 Norte 0 -- -- 61
2017-09-02 17:00:00 24.3 4 Noroeste 21 Norte 0 -- -- 58
2017-09-02 16:00:00 24.4 7 Noroeste 17 Norte 0 -- -- 58
2017-09-02 15:00:00 23.7 9 Noroeste 17 Noroeste 0 -- -- 60
2017-09-02 14:00:00 23.5 9 Noroeste 19 Noroeste 0 -- -- 61
2017-09-02 13:00:00 23.5 8 Norte 17 Norte 0 -- -- 59
2017-09-02 12:00:00 23.2 6 Norte 19 Norte 0 -- -- 61
2017-09-02 11:00:00 23 10 Norte 19 Noroeste 0 -- -- 63
2017-09-02 10:00:00 23 12 Noroeste 21 Norte 0 -- -- 58
2017-09-02 09:00:00 22.8 12 Noroeste 29 Noroeste 0 -- -- 61
2017-09-02 08:00:00 22.3 18 Noroeste 35 Noroeste 0 -- -- 59
2017-09-02 07:00:00 22.9 18 Norte 36 Norte 0 -- -- 57
2017-09-02 06:00:00 22.8 12 Norte 24 Noroeste 0 -- -- 78
2017-09-02 05:00:00 22.6 0 Calma 12 Sur 0 -- -- 72
2017-09-02 04:00:00 21.5 8 Sur 12 Sur 0 -- -- 77
2017-09-02 03:00:00 21.1 9 Sur 11 Sur 0 -- -- 81
2017-09-02 02:00:00 21.5 5 Sur 11 Sur 0 -- -- 82
2017-09-02 01:00:00 21.6 6 Sur 12 Sur 0 -- -- 80
2017-09-02 00:00:00 21.6 8 Sur 10 Sur 0 -- -- 79
2017-09-01 23:00:00 21.7 6 Sur 13 Sur 0 -- -- 79
2017-09-01 22:00:00 22.2 6 Sur 11 Sur 0 -- -- 77
2017-09-01 21:00:00 22.9 8 Sur 13 Sudeste 0 -- -- 73
2017-09-01 20:00:00 24.3 6 Este 25 Nordeste 0 -- -- 71
2017-09-01 19:00:00 24.5 17 Nordeste 26 Nordeste 0 -- -- 70
2017-09-01 18:00:00 25.9 12 Nordeste 27 Nordeste 0 -- -- 67
2017-09-01 17:00:00 24.9 18 Nordeste 31 Nordeste 0 -- -- 71
2017-09-01 16:00:00 25 20 Nordeste 33 Nordeste 0 -- -- 71
2017-09-01 15:00:00 25.4 15 Nordeste 41 Nordeste 0 -- -- 71
2017-09-01 14:00:00 25.3 18 Nordeste 31 Nordeste 0 -- -- 70
2017-09-01 13:00:00 25.6 15 Nordeste 27 Nordeste 0 -- -- 71
2017-09-01 12:00:00 25.2 12 Norte 20 Norte 0 -- -- 75
2017-09-01 11:00:00 24.5 8 Norte 21 Norte 0 -- -- 77
2017-09-01 10:00:00 24.6 6 Nordeste 18 Nordeste 0 -- -- 77
2017-09-01 09:00:00 23.9 10 Nordeste 16 Nordeste 0 -- -- 79
2017-09-01 08:00:00 21.9 5 Sudeste 10 Sudeste 0 -- -- 89
2017-09-01 07:00:00 21.7 6 Sudeste 12 Sur 0 -- -- 89
2017-09-01 06:00:00 21.3 10 Sur 13 Sudoeste 0 -- -- 91
2017-09-01 05:00:00 22.2 8 Sur 10 Sur 0 -- -- 90
2017-09-01 04:00:00 23.1 6 Sudeste 10 Sudeste 0 -- -- 89
2017-09-01 03:00:00 22.4 6 Sur 12 Sur 0 -- -- 87
2017-09-01 02:00:00 22.7 8 Sur 11 Sur 0 -- -- 90
2017-09-01 01:00:00 23.5 8 Sur 12 Sur 0 -- -- 83
2017-09-01 00:00:00 23.5 4 Sur 10 Sur 0 -- -- 72
2017-08-31 23:00:00 23.5 7 Sur 12 Sudeste 0 -- -- 79
2017-08-31 22:00:00 23.5 5 Sudeste 10 Sur 0 -- -- 81
2017-08-31 21:00:00 24 3 Sur 16 Este 0 -- -- 84
2017-08-31 20:00:00 24.5 11 Nordeste 39 Nordeste 0 -- -- 89
2017-08-31 19:00:00 24.6 25 Nordeste 37 Nordeste 0 -- -- 91
2017-08-31 18:00:00 25.2 21 Nordeste 35 Nordeste 0 -- -- 89
2017-08-31 17:00:00 26.6 6 Norte 16 Noroeste 0 -- -- 79
2017-08-31 16:00:00 26.9 10 Noroeste 22 Noroeste 0 -- -- 79
2017-08-31 15:00:00 26.6 10 Noroeste 27 Noroeste 0 -- -- 80
2017-08-31 14:00:00 27.7 7 Noroeste 14 Noroeste 0 -- -- 75
2017-08-31 13:00:00 27.5 6 Norte 9 Norte 0 -- -- 74
2017-08-31 12:00:00 27.4 5 Norte 8 Norte 0 -- -- 69
2017-08-31 11:00:00 26.6 3 Nordeste 9 Este 0 -- -- 76
2017-08-31 10:00:00 25.9 3 Sudeste 9 Sur 0 -- -- 82
2017-08-31 09:00:00 24.7 4 Sur 10 Sur 0 -- -- 88
2017-08-31 08:00:00 24.6 4 Sur 10 Sur 0 -- -- 83
2017-08-31 07:00:00 25.3 7 Norte 15 Norte 0 -- -- 79
2017-08-31 06:00:00 25.4 9 Norte 15 Noroeste 0 -- -- 79
2017-08-31 05:00:00 24.6 6 Sur 10 Sur 0 -- -- 59
2017-08-31 04:00:00 23.9 8 Sur 14 Sur 0 -- -- 66
2017-08-31 03:00:00 23.5 11 Sudeste 21 Sur 0 -- -- 75
2017-08-31 02:00:00 21.6 9 Sur 17 Sur 0.2 -- -- 90
2017-08-31 01:00:00 22.3 9 Sur 15 Sur 0.2 -- -- 83
2017-08-31 00:00:00 23.2 9 Sur 13 Sur 0 -- -- 77
2017-08-30 23:00:00 23.6 9 Sur 13 Sur 0 -- -- 82
2017-08-30 22:00:00 23.9 10 Sur 14 Sur 0 -- -- 76
2017-08-30 21:00:00 24.6 6 Sur 11 Oeste 0 -- -- 77
2017-08-30 20:00:00 26 7 Oeste 27 Oeste 0 -- -- 80
2017-08-30 19:00:00 26.7 22 Oeste 31 Oeste 0 -- -- 73
2017-08-30 18:00:00 26.9 22 Oeste 34 Oeste 0 -- -- 73
2017-08-30 17:00:00 27.6 18 Oeste 36 Oeste 0 -- -- 65
2017-08-30 16:00:00 26.8 21 Oeste 35 Oeste 0 -- -- 65
2017-08-30 15:00:00 28 20 Oeste 29 Oeste 0 -- -- 52
2017-08-30 14:00:00 28.7 14 Oeste 25 Sudoeste 0 -- -- 50
2017-08-30 13:00:00 28 13 Oeste 21 Oeste 0 -- -- 58
2017-08-30 12:00:00 28.9 2 Norte 13 Oeste 0 -- -- 52
2017-08-30 11:00:00 27.7 8 Noroeste 13 Noroeste 0 -- -- 53
2017-08-30 10:00:00 25.9 5 Sudoeste 13 Sur 0 -- -- 60
2017-08-30 09:00:00 24.3 6 Sudoeste 11 Sur 0 -- -- 68
2017-08-30 08:00:00 23.2 7 Este 15 Sudeste 0 -- -- 85
2017-08-30 07:00:00 23.4 10 Norte 36 Norte 0 -- -- 84
2017-08-30 06:00:00 22.4 8 Sur 17 Norte 0 -- -- 88
2017-08-30 05:00:00 23.5 13 Norte 31 Norte 0 -- -- 83
2017-08-30 04:00:00 23.5 10 Noroeste 42 Noroeste 0.2 -- -- 91
2017-08-30 03:00:00 25.1 14 Noroeste 27 Noroeste 0 -- -- 81
2017-08-30 02:00:00 25 9 Sudoeste 15 Sudeste 0 -- -- 82
2017-08-30 01:00:00 25.1 6 Este 18 Sudeste 0 -- -- 81
2017-08-30 00:00:00 25 7 Sudeste 15 Norte 0 -- -- 79
2017-08-29 23:00:00 25.7 10 Norte 20 Norte 0 -- -- 78
2017-08-29 22:00:00 25.4 3 Oeste 12 Noroeste 0 -- -- 78
2017-08-29 21:00:00 26.2 4 Norte 15 Noroeste 0 -- -- 73
2017-08-29 20:00:00 26.8 6 Norte 15 Norte 0 -- -- 75
2017-08-29 19:00:00 27.3 4 Noroeste 14 Oeste 0 -- -- 76
2017-08-29 18:00:00 27.6 6 Noroeste 13 Oeste 0 -- -- 83
2017-08-29 17:00:00 27.4 5 Nordeste 14 Noroeste 0 -- -- 93
2017-08-29 16:00:00 28.3 6 Noroeste 11 Noroeste 0 -- -- 89
2017-08-29 15:00:00 27.8 5 Norte 11 Norte 0 -- -- 89
2017-08-29 14:00:00 28.7 6 Noroeste 10 Noroeste 0 -- -- 82
2017-08-29 13:00:00 28.4 7 Norte 12 Noroeste 0 -- -- 74
2017-08-29 12:00:00 27.6 6 Noroeste 18 Noroeste 0 -- -- 83
2017-08-29 11:00:00 27.6 5 Nordeste 8 Nordeste 0 -- -- 80
2017-08-29 10:00:00 27.2 6 Nordeste 10 Nordeste 0 -- -- 77
2017-08-29 09:00:00 28 0 Calma 12 Sur 0 -- -- 66
2017-08-29 08:00:00 25.1 6 Sur 15 Sur 0 -- -- 58
2017-08-29 07:00:00 24.1 8 Sur 12 Sur 0 -- -- 58
2017-08-29 06:00:00 24.4 10 Sur 14 Sur 0 -- -- 56
2017-08-29 05:00:00 25.1 9 Sur 12 Sur 0 -- -- 53
2017-08-29 04:00:00 25.9 3 Sur 13 Sur 0 -- -- 52
2017-08-29 03:00:00 25.6 9 Sur 13 Sur 0 -- -- 55
2017-08-29 02:00:00 26.1 4 Sudeste 9 Sur 0 -- -- 61
2017-08-29 01:00:00 26 4 Sudeste 12 Sur 0 -- -- 63
2017-08-29 00:00:00 25.5 4 Sur 13 Sur 0 -- -- 63
2017-08-28 23:00:00 25.6 9 Sudeste 14 Sudeste 0 -- -- 75
2017-08-28 22:00:00 26 7 Sudeste 26 Oeste 0 -- -- 87
2017-08-28 21:00:00 26.6 5 Sudoeste 11 Oeste 0 -- -- 77
2017-08-28 20:00:00 27.4 5 Sudeste 17 Oeste 0 -- -- 86
2017-08-28 19:00:00 27.4 8 Oeste 16 Oeste 0 -- -- 93
2017-08-28 18:00:00 27.7 6 Norte 18 Noroeste 0 -- -- 95
2017-08-28 17:00:00 27.2 9 Oeste 16 Noroeste 0 -- -- 95
2017-08-28 16:00:00 27.5 5 Nordeste 10 Norte 0 -- -- 93
2017-08-28 15:00:00 28 5 Norte 11 Norte 0 -- -- 92
2017-08-28 14:00:00 28.2 5 Norte 12 Norte 0 -- -- 91
2017-08-28 13:00:00 27.3 8 Norte -- -- -- -- -- 97
2017-08-28 12:00:00 -- 4 Norte 9 Norte 0 -- -- --
2017-08-28 11:00:00 27.1 4 Norte 9 Norte 0 -- -- 95
2017-08-28 10:00:00 26.8 4 Norte 11 Norte 0 -- -- 96
2017-08-28 09:00:00 26.2 3 Sudoeste 9 Sur 0 -- -- 90
2017-08-28 08:00:00 24 5 Sur 10 Sur 0 -- -- 94
2017-08-28 07:00:00 24.1 6 Sur 12 Sur 0 -- -- 99
2017-08-28 06:00:00 24.4 5 Sur 10 Sur 0 -- -- 98
2017-08-28 05:00:00 24.2 6 Sur 9 Sur 0 -- -- 95
2017-08-28 04:00:00 24.1 4 Sur 8 Sur 0 -- -- 93
2017-08-28 03:00:00 24.2 8 Sur 10 Sur 0 -- -- 91
2017-08-28 02:00:00 24.8 5 Sur 10 Sur 0 -- -- 94
2017-08-28 01:00:00 25.7 3 Sudeste 10 Nordeste 0 -- -- 87
2017-08-28 00:00:00 24.5 4 Sur 9 Sur 0 -- -- 82
2017-08-27 23:00:00 24.5 5 Sur 10 Sur 0 -- -- 83
2017-08-27 22:00:00 25.3 3 Sur 9 Sur 0 -- -- 95
2017-08-27 21:00:00 26.3 3 Noroeste 12 Norte 0 -- -- 96
2017-08-27 20:00:00 26.9 2 Norte 19 Norte 0 -- -- 94
2017-08-27 19:00:00 26.8 9 Norte 21 Nordeste 0 -- -- 93
2017-08-27 18:00:00 26.8 8 Nordeste 13 Nordeste 0 -- -- 92
2017-08-27 17:00:00 27.5 5 Nordeste 12 Norte 0 -- -- 90
2017-08-27 16:00:00 27.7 7 Norte 10 Noroeste 0 -- -- 87
2017-08-27 15:00:00 27 7 Norte 14 Norte 0 -- -- 90
2017-08-27 14:00:00 27.3 9 Norte 14 Norte 0 -- -- 89
2017-08-27 13:00:00 27.2 8 Norte 14 Norte 0 -- -- 90
2017-08-27 12:00:00 27.5 7 Norte 17 Norte 0 -- -- 91
2017-08-27 11:00:00 26.9 11 Norte 23 Nordeste 0 -- -- 93
2017-08-27 10:00:00 26.7 8 Nordeste 21 Nordeste 0 -- -- 93
2017-08-27 09:00:00 26.4 6 Nordeste 12 Nordeste 0 -- -- 91
2017-08-27 08:00:00 23.4 9 Sur 15 Sur 0 -- -- 80
2017-08-27 07:00:00 23.4 7 Sudeste 15 Sur 0 -- -- 89
2017-08-27 06:00:00 23 9 Sur 15 Sudeste 0 -- -- 92
2017-08-27 05:00:00 24.6 5 Sur 11 Sur 0 -- -- 95
2017-08-27 04:00:00 24.1 7 Sur 12 Sur 0 -- -- 96
2017-08-27 03:00:00 24.8 4 Sur 12 Sur 0 -- -- 94
2017-08-27 02:00:00 24.6 9 Sur 12 Sur 0 -- -- 94
2017-08-27 01:00:00 25.3 5 Sudoeste 12 Sur 0 -- -- 95
2017-08-27 00:00:00 24.5 7 Sur 12 Sur 0 -- -- 87
2017-08-26 23:00:00 25.3 5 Sur 25 Oeste 0 -- -- 92
2017-08-26 22:00:00 26.5 6 Sudoeste 14 Sudoeste 0 -- -- 91
2017-08-26 21:00:00 26 3 Sur 8 Sudoeste 0 -- -- 91
2017-08-26 20:00:00 27.5 0 Calma 8 Norte 0 -- -- 89
2017-08-26 19:00:00 27.9 6 Norte 19 Norte 0 -- -- 88
2017-08-26 18:00:00 28.1 13 Norte 23 Norte 0 -- -- 86
2017-08-26 17:00:00 28.2 12 Norte 22 Norte 0 -- -- 85
2017-08-26 16:00:00 28 14 Norte 23 Norte 0 -- -- 85
2017-08-26 15:00:00 28.1 14 Nordeste 22 Norte 0 -- -- 84
2017-08-26 14:00:00 27.7 10 Norte 18 Norte 0 -- -- 86
2017-08-26 13:00:00 27.6 9 Norte 17 Norte 0 -- -- 89
2017-08-26 12:00:00 26.5 7 Norte 14 Norte 0 -- -- 94
2017-08-26 11:00:00 26.3 8 Norte 14 Norte 0 -- -- 93
2017-08-26 10:00:00 25.9 8 Norte 15 Norte 0 -- -- 94
2017-08-26 09:00:00 25.7 9 Norte 19 Norte 0 -- -- 96
2017-08-26 08:00:00 25.9 7 Este 19 Sudeste 0 -- -- 90
2017-08-26 07:00:00 25.1 9 Sur 26 Sudoeste 0 -- -- 74
2017-08-26 06:00:00 24.4 8 Sur 14 Sur 0 -- -- 68
2017-08-26 05:00:00 24.9 7 Sur 17 Sudoeste 0 -- -- 54
2017-08-26 04:00:00 25.6 5 Sudoeste 15 Nordeste 0 -- -- 54
2017-08-26 03:00:00 24 9 Sudeste 14 Sudeste 0 -- -- 85
2017-08-26 02:00:00 25.1 6 Sudeste 10 Sur 0 -- -- 90
2017-08-26 01:00:00 25 5 Sudeste 10 Sudoeste 0 -- -- 91
2017-08-26 00:00:00 24.5 7 Sur 10 Sur 0 -- -- 93